Time;durP1;ratioP1;P1;durP2;ratioP2;P2;SDS_P1;SDS_P2;PMS_P1;PMS_P2;Temp;Humidity;BMP_temperature;BMP_pressure;BME280_temperature;BME280_humidity;BME280_pressure;Samples;Min_cycle;Max_cycle;Signal;HPM_P1;HPM_P2
2022/11/15 00:01:19;;;;;;;15.10;8.85;;;25.80;95.50;;;;;;1894075;75;21504;-88
2022/11/15 00:03:52;;;;;;;17.52;9.25;;;25.80;95.50;;;;;;1901905;74;21103;-88
2022/11/15 00:06:23;;;;;;;16.25;9.03;;;25.90;95.50;;;;;;1861258;76;21209;-88
2022/11/15 00:08:54;;;;;;;11.33;8.15;;;25.80;95.50;;;;;;1922173;74;21115;-87
2022/11/15 00:11:25;;;;;;;13.60;8.05;;;25.90;95.50;;;;;;1925691;74;21109;-88
2022/11/15 00:14:02;;;;;;;15.08;8.43;;;25.90;95.30;;;;;;1914486;73;21083;-86
2022/11/15 00:16:31;;;;;;;14.75;9.03;;;26.00;95.30;;;;;;1907144;73;21036;-86
2022/11/15 00:19:03;;;;;;;16.30;9.38;;;26.00;95.20;;;;;;1919668;74;21101;-78
2022/11/15 00:21:33;;;;;;;21.23;8.90;;;26.00;95.20;;;;;;1896134;74;21084;-79
2022/11/15 00:24:05;;;;;;;18.05;7.67;;;26.00;95.00;;;;;;1905683;74;21068;-80
2022/11/15 00:26:35;;;;;;;14.05;7.53;;;26.10;94.90;;;;;;1963166;71;21097;-78
2022/11/15 00:29:06;;;;;;;10.50;7.30;;;26.10;94.70;;;;;;1949767;73;21172;-81
2022/11/15 00:31:37;;;;;;;12.50;6.53;;;26.20;94.60;;;;;;1952585;73;21095;-76
2022/11/15 00:34:08;;;;;;;10.55;6.78;;;26.20;94.40;;;;;;1954312;72;21569;-79
2022/11/15 00:36:39;;;;;;;12.75;8.80;;;26.20;94.20;;;;;;1967863;73;21108;-80
2022/11/15 00:39:10;;;;;;;12.95;8.38;;;26.20;94.20;;;;;;1941199;73;21186;-78
2022/11/15 00:41:40;;;;;;;19.67;11.60;;;26.30;94.30;;;;;;1946394;73;21089;-79
2022/11/15 00:44:11;;;;;;;17.45;11.40;;;26.30;94.10;;;;;;1946502;73;21139;-79
2022/11/15 00:46:42;;;;;;;19.75;11.35;;;26.30;93.90;;;;;;1958465;71;21118;-78
2022/11/15 00:49:13;;;;;;;18.85;12.90;;;26.40;93.90;;;;;;1969557;71;21106;-76
2022/11/15 00:51:44;;;;;;;24.72;14.93;;;26.40;93.70;;;;;;1954459;71;21093;-78
2022/11/15 00:54:15;;;;;;;18.50;12.33;;;26.40;93.70;;;;;;1960913;73;21071;-77
2022/11/15 00:56:46;;;;;;;18.42;11.25;;;26.40;93.70;;;;;;1967918;72;21048;-77
2022/11/15 00:59:16;;;;;;;20.62;13.80;;;26.50;93.80;;;;;;1935661;71;21122;-77
2022/11/15 01:01:47;;;;;;;16.90;10.95;;;26.50;93.80;;;;;;1970019;71;21150;-80
2022/11/15 01:04:19;;;;;;;12.98;7.22;;;26.60;93.40;;;;;;1958553;71;21573;-76
2022/11/15 01:06:49;;;;;;;11.75;7.97;;;26.70;93.30;;;;;;1961877;73;21113;-78
2022/11/15 01:09:21;;;;;;;9.93;6.55;;;26.70;93.30;;;;;;1956032;73;21091;-79
2022/11/15 01:11:53;;;;;;;10.18;6.30;;;26.70;93.00;;;;;;1963892;73;21049;-78
2022/11/15 01:14:25;;;;;;;11.15;6.37;;;26.70;93.10;;;;;;1965519;72;21040;-80
2022/11/15 01:16:56;;;;;;;10.85;5.95;;;26.80;93.10;;;;;;1934080;72;21109;-77
2022/11/15 01:19:27;;;;;;;9.03;6.72;;;26.80;92.80;;;;;;1929259;73;21197;-79
2022/11/15 01:21:58;;;;;;;9.28;5.72;;;26.90;92.70;;;;;;1916493;74;21102;-80
2022/11/15 01:24:29;;;;;;;6.97;4.95;;;26.90;92.60;;;;;;1861693;77;21174;-81
2022/11/15 01:27:00;;;;;;;7.80;4.95;;;26.90;92.70;;;;;;1902609;75;21083;-79
2022/11/15 01:29:31;;;;;;;10.45;5.58;;;27.00;92.30;;;;;;1898229;75;21084;-78
2022/11/15 01:32:02;;;;;;;8.50;4.25;;;27.00;92.30;;;;;;1866429;76;21166;-82
2022/11/15 01:34:33;;;;;;;7.90;4.05;;;27.00;92.00;;;;;;1920997;74;21593;-80
2022/11/15 01:37:04;;;;;;;7.60;4.83;;;27.10;91.90;;;;;;1858304;76;21135;-80
2022/11/15 01:39:35;;;;;;;7.72;4.80;;;27.10;91.70;;;;;;1903739;73;21130;-79
2022/11/15 01:42:11;;;;;;;9.50;5.80;;;27.10;91.70;;;;;;1888012;75;21615;-80
2022/11/15 01:44:50;;;;;;;5.97;3.83;;;27.20;91.80;;;;;;1907425;74;21142;-80
2022/11/15 01:47:23;;;;;;;5.80;4.03;;;27.20;91.60;;;;;;1954238;72;21575;-80
2022/11/15 01:49:59;;;;;;;6.45;4.05;;;27.30;91.80;;;;;;1951903;72;21028;-80
2022/11/15 01:52:33;;;;;;;9.88;4.12;;;27.30;91.50;;;;;;1955258;72;21137;-78
2022/11/15 01:55:10;;;;;;;6.03;4.00;;;27.40;91.50;;;;;;1957217;72;21083;-80
2022/11/15 01:57:43;;;;;;;6.90;3.47;;;27.40;91.30;;;;;;1952464;73;21161;-79
2022/11/15 02:00:15;;;;;;;8.98;4.50;;;27.50;91.20;;;;;;1951170;72;21148;-80
2022/11/15 02:02:46;;;;;;;9.73;4.30;;;27.50;91.20;;;;;;1913684;73;21147;-79
2022/11/15 02:05:17;;;;;;;6.95;3.87;;;27.50;91.20;;;;;;1867614;75;21159;-78
2022/11/15 02:07:49;;;;;;;8.18;4.28;;;27.60;91.40;;;;;;1906018;75;21189;-79
2022/11/15 02:10:22;;;;;;;8.43;3.50;;;27.60;91.20;;;;;;1892195;74;21123;-79
2022/11/15 02:12:55;;;;;;;7.83;3.95;;;27.70;90.80;;;;;;1906849;73;21179;-79
2022/11/15 02:15:28;;;;;;;7.95;3.37;;;27.80;90.80;;;;;;1913063;74;21549;-79
2022/11/15 02:18:14;;;;;;;7.55;3.55;;;27.80;90.60;;;;;;1918807;74;21080;-80
2022/11/15 02:20:54;;;;;;;10.82;4.45;;;27.80;90.70;;;;;;1906224;74;21155;-80
2022/11/15 02:23:27;;;;;;;6.85;3.80;;;27.90;90.60;;;;;;1950097;71;21044;-79
2022/11/15 02:26:10;;;;;;;6.67;3.90;;;28.00;90.70;;;;;;1955302;72;21565;-77
2022/11/15 02:28:49;;;;;;;4.92;3.20;;;28.00;90.30;;;;;;1954347;73;21600;-78
2022/11/15 02:31:37;;;;;;;14.15;3.42;;;28.10;90.30;;;;;;1960248;73;21515;-75
2022/11/15 02:34:29;;;;;;;6.53;3.10;;;28.20;90.10;;;;;;1952662;71;21119;-77
2022/11/15 02:37:10;;;;;;;4.15;2.80;;;28.30;89.00;;;;;;1913584;73;21431;-78
2022/11/15 02:39:49;;;;;;;7.25;3.37;;;28.30;89.50;;;;;;1901491;73;21503;-76
2022/11/15 02:45:13;;;;;;;7.53;3.77;;;28.30;90.00;;;;;;1961742;71;21541;-78
2022/11/15 02:47:47;;;;;;;6.10;3.75;;;28.40;89.60;;;;;;1956687;71;21612;-79
2022/11/15 02:50:23;;;;;;;6.22;3.65;;;28.40;89.30;;;;;;1957932;72;21129;-78
2022/11/15 02:52:54;;;;;;;6.53;3.70;;;28.50;89.20;;;;;;1887193;74;21162;-78
2022/11/15 02:55:30;;;;;;;6.87;3.25;;;28.50;89.40;;;;;;1969167;72;21548;-79
2022/11/15 02:58:12;;;;;;;7.33;3.55;;;28.50;89.30;;;;;;1921108;73;21119;-78
2022/11/15 03:00:51;;;;;;;5.42;3.45;;;28.70;89.00;;;;;;1929267;73;21566;-78
2022/11/15 03:03:34;;;;;;;6.97;3.80;;;28.70;88.80;;;;;;1884730;74;21220;-78
2022/11/15 03:06:25;;;;;;;5.00;3.10;;;28.80;88.60;;;;;;1900586;74;21139;-78
2022/11/15 03:09:04;;;;;;;4.65;3.47;;;28.90;88.00;;;;;;1977115;72;21146;-78
2022/11/15 03:11:38;;;;;;;12.43;3.70;;;29.00;88.20;;;;;;1970042;71;21080;-76
2022/11/15 03:14:11;;;;;;;5.00;3.50;;;29.00;88.30;;;;;;1967977;72;21084;-77
2022/11/15 03:16:47;;;;;;;5.83;3.42;;;29.10;88.30;;;;;;1923016;73;21196;-76
2022/11/15 03:19:29;;;;;;;7.37;3.42;;;29.20;88.10;;;;;;1931392;73;21070;-78
2022/11/15 03:22:03;;;;;;;7.15;3.70;;;29.30;88.30;;;;;;1908651;74;21190;-78
2022/11/15 03:24:36;;;;;;;7.25;3.22;;;29.50;87.90;;;;;;1900965;74;21640;-73
2022/11/15 03:27:12;;;;;;;5.70;3.40;;;29.60;86.70;;;;;;1913352;74;21060;-75
2022/11/15 03:29:46;;;;;;;5.25;3.02;;;29.80;86.40;;;;;;1903600;74;21546;-77
2022/11/15 03:32:19;;;;;;;8.75;3.45;;;29.80;85.80;;;;;;1925289;73;21232;-77
2022/11/15 03:34:52;;;;;;;6.70;2.85;;;29.90;85.30;;;;;;1895728;75;21087;-77
2022/11/15 03:37:26;;;;;;;6.58;3.15;;;30.00;84.80;;;;;;1933903;73;21567;-78
2022/11/15 03:39:57;;;;;;;5.65;3.05;;;30.10;84.60;;;;;;1930965;72;21157;-79
2022/11/15 03:42:33;;;;;;;7.10;3.40;;;30.10;84.80;;;;;;1927777;73;21083;-77
2022/11/15 03:45:13;;;;;;;5.45;3.20;;;30.10;85.10;;;;;;1873705;73;21535;-77
2022/11/15 03:47:52;;;;;;;6.70;2.92;;;30.10;85.40;;;;;;1875024;76;21094;-78
2022/11/15 03:50:26;;;;;;;5.67;3.05;;;30.20;84.80;;;;;;1894101;74;21235;-76
2022/11/15 03:52:58;;;;;;;6.40;2.90;;;30.30;85.10;;;;;;1915762;74;21169;-78
2022/11/15 03:55:29;;;;;;;4.58;2.55;;;30.40;83.80;;;;;;1914066;73;21930;-78
2022/11/15 03:58:01;;;;;;;4.28;2.37;;;30.50;83.10;;;;;;1897231;74;21119;-78
2022/11/15 04:00:32;;;;;;;5.60;2.45;;;30.60;82.20;;;;;;1925103;72;21055;-77
2022/11/15 04:03:03;;;;;;;4.12;2.30;;;30.60;81.20;;;;;;1898779;74;21107;-79
2022/11/15 04:05:34;;;;;;;8.20;2.98;;;30.70;82.40;;;;;;1893882;74;21195;-78
2022/11/15 04:08:06;;;;;;;5.40;2.45;;;30.80;81.70;;;;;;1937417;73;21659;-78
2022/11/15 04:10:38;;;;;;;5.15;2.42;;;30.90;80.80;;;;;;1936053;72;21114;-79
2022/11/15 04:13:09;;;;;;;5.37;2.40;;;30.90;80.80;;;;;;1939880;74;21111;-76
2022/11/15 04:15:42;;;;;;;4.85;2.55;;;31.00;80.40;;;;;;1938628;72;21122;-79
2022/11/15 04:18:13;;;;;;;5.70;2.47;;;31.00;80.50;;;;;;1932560;73;21051;-78
2022/11/15 04:26:22;;;;;;;6.42;2.50;;;30.90;80.20;;;;;;1908582;73;21205;-78
2022/11/15 04:31:41;;;;;;;4.10;2.33;;;30.90;80.80;;;;;;1900427;75;21146;-78
2022/11/15 04:34:18;;;;;;;5.70;2.67;;;31.10;79.30;;;;;;1959106;72;21596;-78
2022/11/15 04:39:37;;;;;;;5.55;2.40;;;31.30;78.70;;;;;;1977486;72;21076;-79
2022/11/15 04:42:10;;;;;;;8.35;2.60;;;31.30;78.20;;;;;;1935098;72;21110;-76
2022/11/15 04:44:43;;;;;;;4.87;2.55;;;31.40;78.40;;;;;;1895176;75;21079;-79
2022/11/15 04:47:12;;;;;;;5.28;2.27;;;31.50;78.50;;;;;;1970869;72;21119;-77
2022/11/15 04:49:44;;;;;;;5.65;2.30;;;31.60;78.30;;;;;;1939663;74;21099;-77
2022/11/15 04:52:15;;;;;;;6.75;2.42;;;31.80;77.80;;;;;;1932276;72;21134;-78
2022/11/15 04:54:46;;;;;;;3.58;2.10;;;31.90;76.80;;;;;;1939005;74;21204;-79
2022/11/15 04:57:17;;;;;;;5.05;2.22;;;31.90;77.60;;;;;;1939111;74;21172;-77
2022/11/15 04:59:48;;;;;;;3.58;2.12;;;32.00;77.30;;;;;;1939426;74;21063;-78
2022/11/15 05:02:20;;;;;;;4.42;2.52;;;32.10;76.50;;;;;;1943032;72;21052;-77
2022/11/15 05:04:51;;;;;;;4.55;2.35;;;32.00;77.10;;;;;;1939470;74;21180;-77
2022/11/15 05:07:22;;;;;;;10.53;3.02;;;32.00;76.50;;;;;;1937563;74;21199;-80
2022/11/15 05:09:53;;;;;;;5.33;2.70;;;31.90;76.00;;;;;;1932423;73;21514;-78
2022/11/15 05:12:24;;;;;;;4.15;2.92;;;31.80;76.20;;;;;;1938970;73;21063;-78
2022/11/15 05:14:54;;;;;;;5.00;2.35;;;31.80;76.60;;;;;;1939111;72;21582;-78
2022/11/15 05:17:25;;;;;;;3.80;2.20;;;31.60;76.10;;;;;;1937073;72;21154;-79
2022/11/15 05:19:56;;;;;;;6.15;2.80;;;31.50;76.50;;;;;;1927425;74;21177;-78
2022/11/15 05:22:27;;;;;;;6.75;2.30;;;31.50;77.30;;;;;;1936632;73;21481;-79
2022/11/15 05:24:58;;;;;;;4.33;2.37;;;31.50;77.60;;;;;;1939595;72;21181;-79
2022/11/15 05:27:29;;;;;;;3.42;2.17;;;31.50;78.60;;;;;;1934640;72;21133;-78
2022/11/15 05:30:00;;;;;;;4.75;2.10;;;31.60;77.50;;;;;;1936769;73;21185;-79
2022/11/15 05:32:37;;;;;;;4.85;2.47;;;31.70;77.30;;;;;;1942931;72;21213;-79
2022/11/15 05:35:10;;;;;;;4.65;2.60;;;31.80;76.20;;;;;;1940610;72;21169;-77
2022/11/15 05:37:42;;;;;;;4.50;2.58;;;31.80;76.70;;;;;;1936583;72;21071;-78
2022/11/15 05:40:13;;;;;;;4.97;2.75;;;31.80;76.60;;;;;;1930170;74;21114;-78
2022/11/15 05:42:44;;;;;;;7.65;2.60;;;31.70;76.40;;;;;;1941637;72;21174;-78
2022/11/15 05:45:15;;;;;;;5.97;2.25;;;31.60;76.00;;;;;;1939776;74;21524;-75
2022/11/15 05:47:48;;;;;;;4.22;2.17;;;31.60;76.70;;;;;;1932075;73;21132;-77
2022/11/15 05:50:19;;;;;;;4.60;2.22;;;31.60;77.40;;;;;;1927925;74;21133;-80
2022/11/15 05:52:51;;;;;;;3.87;2.37;;;31.60;77.40;;;;;;1929164;73;21590;-76
2022/11/15 05:55:22;;;;;;;5.08;2.00;;;31.70;77.60;;;;;;1874464;75;21597;-81
2022/11/15 05:57:53;;;;;;;5.78;2.42;;;31.80;76.50;;;;;;1928543;74;21196;-77
2022/11/15 06:00:27;;;;;;;4.33;1.87;;;31.90;75.60;;;;;;1872708;74;21589;-83
2022/11/15 06:02:59;;;;;;;4.08;2.15;;;31.90;74.90;;;;;;1929516;72;21203;-79
2022/11/15 06:05:30;;;;;;;4.58;2.10;;;31.90;74.90;;;;;;1887323;74;21113;-80
2022/11/15 06:08:02;;;;;;;3.45;2.00;;;31.90;75.80;;;;;;1961764;72;21113;-80
2022/11/15 06:10:33;;;;;;;3.98;2.40;;;31.80;75.60;;;;;;1952023;72;21514;-77
2022/11/15 06:13:05;;;;;;;4.50;2.45;;;31.80;75.40;;;;;;1958427;72;21458;-80
2022/11/15 06:15:36;;;;;;;3.33;1.95;;;31.90;75.00;;;;;;1966066;72;21104;-79
2022/11/15 06:18:07;;;;;;;4.42;2.10;;;31.80;75.40;;;;;;1972239;72;21476;-78
2022/11/15 06:20:38;;;;;;;4.75;2.55;;;31.80;75.30;;;;;;1968635;72;21048;-84
2022/11/15 06:23:09;;;;;;;8.70;3.67;;;31.80;74.80;;;;;;1939944;73;21251;-81
2022/11/15 06:25:40;;;;;;;4.25;2.30;;;31.90;74.90;;;;;;1927179;74;21500;-78
2022/11/15 06:28:11;;;;;;;6.00;2.30;;;32.00;74.60;;;;;;1935823;72;21119;-78
2022/11/15 06:30:43;;;;;;;5.45;2.42;;;32.20;74.50;;;;;;1914698;73;21126;-79
2022/11/15 06:33:16;;;;;;;3.83;2.08;;;32.20;74.40;;;;;;1890775;75;21141;-79
2022/11/15 06:35:49;;;;;;;4.67;2.30;;;32.30;72.90;;;;;;1927898;73;21460;-77
2022/11/15 06:38:20;;;;;;;4.37;2.10;;;32.40;72.10;;;;;;1880142;75;21068;-77
2022/11/15 06:40:51;;;;;;;3.55;1.95;;;;;;;;;;1882473;75;21130;-75
2022/11/15 06:43:21;;;;;;;4.22;2.47;;;32.50;71.60;;;;;;1917534;74;21091;-77
2022/11/15 06:45:52;;;;;;;4.50;2.50;;;32.60;72.90;;;;;;1911966;75;21079;-75
2022/11/15 06:48:23;;;;;;;7.00;2.70;;;32.70;75.40;;;;;;1913174;74;21124;-76
2022/11/15 06:50:59;;;;;;;3.87;1.92;;;32.70;72.60;;;;;;1910857;75;21666;-78
2022/11/15 06:53:31;;;;;;;6.25;2.45;;;32.70;72.40;;;;;;1908990;74;21144;-79
2022/11/15 06:56:06;;;;;;;4.05;2.10;;;32.70;72.70;;;;;;1898111;74;21060;-82
2022/11/15 06:58:38;;;;;;;4.58;2.50;;;32.70;72.50;;;;;;1904555;74;21071;-79
2022/11/15 07:01:12;;;;;;;3.50;1.90;;;32.70;72.60;;;;;;1906081;73;21244;-77
2022/11/15 07:03:45;;;;;;;3.27;1.75;;;32.80;72.60;;;;;;1972606;72;21250;-78
2022/11/15 07:06:16;;;;;;;3.60;1.90;;;32.80;71.20;;;;;;1931755;73;21125;-79
2022/11/15 07:08:50;;;;;;;3.87;2.05;;;32.70;72.30;;;;;;1938729;73;21035;-82
2022/11/15 07:11:24;;;;;;;4.95;2.52;;;32.60;71.60;;;;;;1866488;75;21152;-84
2022/11/15 07:13:56;;;;;;;4.08;2.15;;;32.50;71.80;;;;;;1880641;75;21186;-82
2022/11/15 07:16:27;;;;;;;6.92;2.22;;;32.40;72.30;;;;;;1912454;74;21118;-79
2022/11/15 07:18:58;;;;;;;4.67;2.60;;;32.30;72.40;;;;;;1926075;74;21827;-82
2022/11/15 07:21:30;;;;;;;6.08;2.60;;;32.20;73.00;;;;;;1919281;73;21208;-82
2022/11/15 07:24:02;;;;;;;3.75;2.20;;;32.10;73.70;;;;;;1960348;72;21052;-78
2022/11/15 07:26:32;;;;;;;4.28;1.90;;;32.00;74.10;;;;;;1969002;72;22018;-78
2022/11/15 07:29:04;;;;;;;2.45;1.80;;;32.00;74.30;;;;;;1912433;74;21192;-78
2022/11/15 07:31:35;;;;;;;4.25;2.17;;;32.00;74.40;;;;;;1979782;72;21095;-79
2022/11/15 07:34:08;;;;;;;5.62;2.40;;;32.00;74.70;;;;;;1977110;72;21591;-83
2022/11/15 07:36:39;;;;;;;3.75;2.35;;;32.10;74.20;;;;;;1972615;72;21165;-77
2022/11/15 07:39:11;;;;;;;4.72;2.17;;;32.10;74.50;;;;;;1942533;72;21185;-81
2022/11/15 07:41:43;;;;;;;3.58;2.00;;;32.10;73.90;;;;;;1947558;73;21170;-79
2022/11/15 07:44:14;;;;;;;9.40;2.72;;;32.20;73.40;;;;;;1947756;73;21439;-76
2022/11/15 07:46:44;;;;;;;5.17;2.27;;;32.20;73.30;;;;;;1943761;73;21098;-81
2022/11/15 07:49:18;;;;;;;3.47;2.30;;;32.20;72.90;;;;;;1927379;73;21129;-76
2022/11/15 07:51:53;;;;;;;3.12;2.00;;;32.20;73.10;;;;;;1894618;73;21074;-81
2022/11/15 07:54:25;;;;;;;3.62;1.90;;;32.20;72.40;;;;;;1924922;73;21131;-79
2022/11/15 07:56:57;;;;;;;3.80;2.02;;;32.30;72.60;;;;;;1932826;73;21071;-81
2022/11/15 07:59:29;;;;;;;5.40;2.30;;;32.30;72.60;;;;;;1933926;73;21149;-80
2022/11/15 08:02:00;;;;;;;7.15;2.20;;;32.20;72.80;;;;;;1932241;73;21606;-82
2022/11/15 08:04:31;;;;;;;4.55;1.98;;;32.20;73.70;;;;;;1917539;73;21116;-78
2022/11/15 08:07:02;;;;;;;4.58;1.90;;;32.10;73.80;;;;;;1917072;73;21092;-79
2022/11/15 08:09:33;;;;;;;3.85;2.12;;;32.00;73.20;;;;;;1916696;73;21170;-78
2022/11/15 08:12:07;;;;;;;6.15;2.12;;;32.00;73.40;;;;;;1940783;73;21086;-76
2022/11/15 08:14:38;;;;;;;4.27;2.20;;;31.90;73.90;;;;;;1938504;73;21114;-78
2022/11/15 08:17:09;;;;;;;4.17;2.40;;;31.90;73.70;;;;;;1857118;76;21270;-77
2022/11/15 08:19:40;;;;;;;3.20;2.00;;;31.80;73.40;;;;;;1824662;78;21164;-78
2022/11/15 08:22:11;;;;;;;3.47;2.12;;;31.80;74.00;;;;;;1928368;73;21148;-77
2022/11/15 08:24:42;;;;;;;6.85;2.47;;;31.80;73.50;;;;;;1876148;75;21141;-77
2022/11/15 08:27:22;;;;;;;4.12;1.95;;;31.80;74.00;;;;;;1875954;75;21079;-77
2022/11/15 08:29:53;;;;;;;3.95;2.00;;;31.80;73.80;;;;;;1917786;73;21103;-79
2022/11/15 08:32:25;;;;;;;4.25;2.22;;;31.80;73.30;;;;;;1922537;73;21138;-77
2022/11/15 08:34:55;;;;;;;2.92;1.80;;;31.80;73.30;;;;;;1915830;73;21215;-77
2022/11/15 08:37:26;;;;;;;4.80;2.22;;;31.90;73.50;;;;;;1915173;73;21099;-79
2022/11/15 08:39:57;;;;;;;5.28;1.77;;;31.90;73.60;;;;;;1918931;73;21115;-78
2022/11/15 08:42:28;;;;;;;5.55;2.33;;;32.00;73.10;;;;;;1920386;73;21036;-77
2022/11/15 08:44:59;;;;;;;4.37;2.02;;;32.00;73.20;;;;;;1924287;73;21575;-76
2022/11/15 08:47:30;;;;;;;3.80;2.00;;;32.00;73.10;;;;;;1920731;73;21083;-77
2022/11/15 08:50:05;;;;;;;4.30;2.27;;;32.00;73.10;;;;;;1896029;74;21076;-79
2022/11/15 08:52:36;;;;;;;5.25;2.22;;;32.10;73.10;;;;;;1914232;74;21063;-78
2022/11/15 08:55:09;;;;;;;5.90;2.33;;;32.10;73.10;;;;;;1929340;73;21079;-79
2022/11/15 08:57:46;;;;;;;3.12;1.87;;;32.10;73.90;;;;;;1920413;74;21188;-78
2022/11/15 09:00:19;;;;;;;6.28;2.58;;;32.10;73.30;;;;;;1915030;73;21190;-79
2022/11/15 09:02:51;;;;;;;6.03;2.10;;;32.10;74.00;;;;;;1914711;73;21532;-78
2022/11/15 09:05:23;;;;;;;5.75;2.72;;;32.20;73.50;;;;;;1913111;74;21071;-78
2022/11/15 09:07:57;;;;;;;3.72;2.15;;;32.20;72.90;;;;;;1917900;74;21143;-76
2022/11/15 09:10:31;;;;;;;4.12;2.12;;;32.20;72.90;;;;;;1928782;73;21081;-77
2022/11/15 09:13:02;;;;;;;6.47;2.77;;;32.20;73.40;;;;;;1943733;73;21166;-78
2022/11/15 09:15:33;;;;;;;4.22;2.55;;;32.20;73.10;;;;;;1931182;74;21119;-80
2022/11/15 09:18:04;;;;;;;6.50;2.65;;;32.20;72.90;;;;;;1939746;74;21084;-77
2022/11/15 09:20:35;;;;;;;7.22;3.15;;;32.20;72.80;;;;;;1929317;73;21108;-76
2022/11/15 09:23:06;;;;;;;4.72;3.10;;;32.20;73.10;;;;;;1932656;73;21552;-76
2022/11/15 09:25:40;;;;;;;3.25;2.15;;;32.10;73.40;;;;;;1873097;76;21086;-78
2022/11/15 09:28:11;;;;;;;4.00;2.35;;;32.10;73.40;;;;;;1833791;78;21294;-77
2022/11/15 09:30:42;;;;;;;4.03;2.05;;;32.00;73.50;;;;;;1847361;76;21197;-79
2022/11/15 09:33:14;;;;;;;6.12;3.42;;;32.00;73.20;;;;;;1936093;73;21077;-79
2022/11/15 09:35:45;;;;;;;4.08;2.52;;;31.90;73.10;;;;;;1938636;73;21123;-79
2022/11/15 09:38:16;;;;;;;6.65;2.33;;;31.90;73.20;;;;;;1916918;74;21041;-77
2022/11/15 09:40:52;;;;;;;4.05;2.65;;;31.80;73.00;;;;;;1917140;73;21043;-77
2022/11/15 09:43:34;;;;;;;3.30;2.10;;;31.80;73.30;;;;;;1934347;73;21650;-77
2022/11/15 09:46:19;;;;;;;4.28;2.20;;;31.80;72.40;;;;;;1953777;73;21112;-79
2022/11/15 09:48:59;;;;;;;4.50;2.30;;;31.80;73.20;;;;;;1941880;73;21100;-76
2022/11/15 09:51:46;;;;;;;5.85;2.15;;;31.80;73.80;;;;;;1925816;74;21552;-78
2022/11/15 09:54:29;;;;;;;7.22;2.40;;;31.70;73.70;;;;;;1901437;73;21169;-80
2022/11/15 09:57:07;;;;;;;4.20;2.52;;;31.60;74.10;;;;;;1848450;76;21175;-76
2022/11/15 09:59:57;;;;;;;5.58;2.60;;;31.60;73.70;;;;;;1864384;76;21165;-80
2022/11/15 10:02:44;;;;;;;3.70;1.98;;;31.60;73.90;;;;;;1835895;76;21105;-79
2022/11/15 10:05:18;;;;;;;5.57;3.10;;;31.60;74.20;;;;;;1898683;75;21193;-78
2022/11/15 10:08:07;;;;;;;3.45;2.47;;;31.50;74.60;;;;;;1838364;76;21572;-78
2022/11/15 10:10:43;;;;;;;5.03;2.08;;;31.50;74.10;;;;;;1906250;73;21571;-79
2022/11/15 10:13:20;;;;;;;5.85;3.05;;;31.40;74.10;;;;;;1916089;75;21134;-79
2022/11/15 10:15:51;;;;;;;5.67;2.80;;;31.40;74.50;;;;;;1894694;74;21552;-79
2022/11/15 10:18:36;;;;;;;5.92;2.52;;;31.40;74.60;;;;;;1922657;73;21484;-76
2022/11/15 10:21:18;;;;;;;6.80;2.17;;;31.40;74.60;;;;;;1919005;73;21216;-79
2022/11/15 10:23:50;;;;;;;3.87;2.27;;;31.30;74.50;;;;;;1909386;74;21212;-80
2022/11/15 10:26:22;;;;;;;7.28;2.30;;;31.30;74.70;;;;;;1928812;73;21128;-80
2022/11/15 10:28:52;;;;;;;6.90;2.35;;;31.30;74.80;;;;;;1935729;73;21043;-78
2022/11/15 10:31:29;;;;;;;5.33;2.50;;;31.20;74.90;;;;;;1932222;73;21665;-78
2022/11/15 10:34:12;;;;;;;;;;;31.20;75.20;;;;;;1925318;73;21181;-78
2022/11/15 10:36:47;;;;;;;5.67;2.58;;;31.20;75.90;;;;;;1944812;74;20205;-79
2022/11/15 10:39:19;;;;;;;5.78;2.55;;;31.20;75.70;;;;;;1927197;74;21063;-78
2022/11/15 10:41:49;;;;;;;4.55;2.55;;;31.20;75.90;;;;;;1940508;73;21498;-79
2022/11/15 10:44:30;;;;;;;6.80;3.35;;;31.10;75.90;;;;;;1931272;74;21176;-79
2022/11/15 10:47:27;;;;;;;6.65;3.10;;;31.10;75.90;;;;;;1924354;74;21495;-80
2022/11/15 10:50:02;;;;;;;4.45;3.45;;;31.10;76.20;;;;;;1930866;73;21161;-79
2022/11/15 10:52:35;;;;;;;10.82;3.47;;;31.10;76.40;;;;;;1926243;74;21056;-78
2022/11/15 10:55:14;;;;;;;4.33;2.72;;;31.00;76.60;;;;;;1911294;74;21111;-79
2022/11/15 10:57:52;;;;;;;6.85;3.42;;;31.00;76.80;;;;;;1928021;74;21609;-77
2022/11/15 11:00:29;;;;;;;7.67;3.50;;;31.00;76.80;;;;;;1922686;73;21492;-76
2022/11/15 11:03:06;;;;;;;8.03;3.85;;;31.00;76.90;;;;;;1931921;74;21091;-80
2022/11/15 11:05:40;;;;;;;9.33;3.90;;;30.90;76.90;;;;;;1916573;74;21159;-79
2022/11/15 11:08:20;;;;;;;7.62;4.28;;;31.00;77.20;;;;;;1914611;73;21092;-79
2022/11/15 11:10:59;;;;;;;12.73;4.22;;;30.90;77.50;;;;;;1901737;73;21116;-78
2022/11/15 11:13:39;;;;;;;9.00;3.60;;;30.90;77.60;;;;;;1910087;74;21092;-79
2022/11/15 11:16:36;;;;;;;8.95;3.90;;;30.90;78.00;;;;;;1924176;73;21115;-79
2022/11/15 11:19:31;;;;;;;6.92;3.52;;;30.90;78.60;;;;;;1923939;74;21643;-77
2022/11/15 11:22:19;;;;;;;9.30;4.42;;;30.80;78.90;;;;;;1907400;73;21143;-78
2022/11/15 11:24:52;;;;;;;9.88;4.42;;;30.80;79.40;;;;;;1898346;74;21166;-79
2022/11/15 11:27:45;;;;;;;9.43;4.78;;;30.80;79.60;;;;;;1917968;74;21200;-77
2022/11/15 11:30:24;;;;;;;10.93;5.33;;;30.80;79.80;;;;;;1919941;73;21105;-79
2022/11/15 11:33:16;;;;;;;8.03;5.17;;;30.70;80.00;;;;;;1921488;73;21528;-77
2022/11/15 11:36:01;;;;;;;7.67;4.87;;;30.70;80.20;;;;;;1923994;73;21060;-77
2022/11/15 11:38:42;;;;;;;8.65;4.72;;;30.70;80.20;;;;;;1925715;73;21201;-79
2022/11/15 11:41:15;;;;;;;7.65;4.60;;;30.70;80.20;;;;;;1924771;74;21166;-78
2022/11/15 11:43:55;;;;;;;8.58;4.08;;;30.70;80.40;;;;;;1925393;74;21099;-80
2022/11/15 11:46:43;;;;;;;11.78;4.00;;;30.70;80.80;;;;;;1925337;73;21095;-80
2022/11/15 11:49:25;;;;;;;9.85;4.03;;;30.60;80.90;;;;;;1924038;74;21036;-77
2022/11/15 11:52:01;;;;;;;10.28;3.95;;;30.60;81.00;;;;;;1914893;73;21056;-79
2022/11/15 11:54:54;;;;;;;7.05;4.17;;;30.60;81.10;;;;;;1928864;73;21153;-78
2022/11/15 11:57:39;;;;;;;11.08;4.80;;;30.60;81.10;;;;;;1927421;73;21170;-76
2022/11/15 12:00:25;;;;;;;8.18;4.30;;;30.60;81.50;;;;;;1909262;73;21161;-79
2022/11/15 12:03:21;;;;;;;7.28;4.25;;;30.50;82.10;;;;;;1874055;75;21153;-78
2022/11/15 12:06:00;;;;;;;9.85;4.95;;;30.60;82.00;;;;;;1869164;75;21761;-78
2022/11/15 12:08:46;;;;;;;8.85;5.10;;;30.50;82.00;;;;;;1854617;77;21123;-79
2022/11/15 12:11:38;;;;;;;13.20;5.80;;;30.50;82.20;;;;;;1871200;75;21135;-78
2022/11/15 12:14:12;;;;;;;11.80;5.78;;;30.50;82.40;;;;;;1864341;75;21076;-78
2022/11/15 12:16:46;;;;;;;11.40;5.67;;;30.50;82.60;;;;;;1866256;75;21166;-78
2022/11/15 12:19:24;;;;;;;14.85;6.90;;;30.50;82.40;;;;;;1875506;76;21645;-76
2022/11/15 12:22:06;;;;;;;14.07;8.18;;;30.40;82.30;;;;;;1874435;75;21152;-77
2022/11/15 12:24:40;;;;;;;13.32;7.03;;;30.40;82.70;;;;;;1839212;77;21255;-78
2022/11/15 12:27:24;;;;;;;14.18;8.05;;;30.40;82.60;;;;;;1860139;76;21181;-79
2022/11/15 12:30:00;;;;;;;10.32;6.55;;;30.40;82.90;;;;;;1862176;75;21717;-76
2022/11/15 12:32:37;;;;;;;11.48;6.12;;;30.40;82.60;;;;;;1868948;76;21131;-77
2022/11/15 12:35:12;;;;;;;10.78;6.75;;;30.40;82.20;;;;;;1870394;77;21210;-79
2022/11/15 12:37:45;;;;;;;10.63;5.60;;;30.30;81.80;;;;;;1868758;76;21103;-77
2022/11/15 12:40:24;;;;;;;15.43;6.67;;;30.30;81.60;;;;;;1877677;76;21091;-84
2022/11/15 12:43:06;;;;;;;10.95;5.45;;;30.20;81.60;;;;;;1864845;75;21521;-85
2022/11/15 12:45:42;;;;;;;10.68;5.75;;;30.20;81.70;;;;;;1862597;76;21613;-85
2022/11/15 12:48:40;;;;;;;19.37;7.60;;;30.20;81.80;;;;;;1871904;76;21070;-86
2022/11/15 12:51:12;;;;;;;12.37;6.60;;;30.20;81.80;;;;;;1846292;76;21146;-84
2022/11/15 12:53:44;;;;;;;10.98;6.15;;;30.20;82.00;;;;;;1847985;77;21103;-84
2022/11/15 12:56:18;;;;;;;10.78;5.30;;;30.20;82.00;;;;;;1857601;77;21081;-85
2022/11/15 12:59:02;;;;;;;11.93;5.65;;;30.20;82.10;;;;;;1863346;75;21159;-84
2022/11/15 13:01:49;;;;;;;9.70;5.65;;;30.20;81.90;;;;;;1862775;77;21100;-85
2022/11/15 13:04:25;;;;;;;13.75;6.08;;;30.20;81.80;;;;;;1862742;77;21545;-84
2022/11/15 13:09:53;;;;;;;7.53;4.62;;;30.20;81.30;;;;;;1907972;72;21080;-83
2022/11/15 13:12:27;;;;;;;8.90;4.80;;;30.20;81.20;;;;;;1864553;75;21186;-82
2022/11/15 13:15:03;;;;;;;9.40;5.40;;;30.20;81.30;;;;;;1910262;75;21127;-83
2022/11/15 13:18:01;;;;;;;9.80;5.78;;;30.20;81.60;;;;;;1865919;75;21622;-82
2022/11/15 13:20:33;;;;;;;8.43;4.70;;;30.20;81.60;;;;;;1892954;75;21081;-82
2022/11/15 13:23:13;;;;;;;10.28;4.83;;;30.20;81.40;;;;;;1900008;75;21562;-83
2022/11/15 13:26:03;;;;;;;13.68;5.22;;;30.20;81.40;;;;;;1896255;75;21587;-83
2022/11/15 13:28:37;;;;;;;11.00;5.83;;;30.20;81.40;;;;;;1898307;75;21120;-82
2022/11/15 13:31:19;;;;;;;8.85;5.17;;;30.20;82.10;;;;;;1884555;73;21516;-82
2022/11/15 13:33:50;;;;;;;11.28;5.45;;;30.10;82.10;;;;;;1925825;73;21202;-82
2022/11/15 13:36:29;;;;;;;10.32;5.33;;;30.20;81.90;;;;;;1922479;73;21543;-82
2022/11/15 13:39:17;;;;;;;13.65;5.33;;;30.10;81.70;;;;;;1941167;73;21056;-82
2022/11/15 13:41:50;;;;;;;9.40;4.83;;;30.00;82.50;;;;;;1943037;73;21103;-82